createdAt,value
2023-02-24T00:03:11.401Z,21.30
2023-02-24T00:06:12.095Z,23.10
2023-02-24T00:09:08.412Z,21.60
2023-02-24T00:12:08.916Z,19.90
2023-02-24T00:15:02.992Z,21.20
2023-02-24T00:17:58.453Z,20.60
2023-02-24T00:20:56.411Z,19.90
2023-02-24T00:23:53.534Z,21.90
2023-02-24T00:26:49.388Z,21.10
2023-02-24T00:29:47.407Z,20.10
2023-02-24T00:32:37.511Z,19.70
2023-02-24T00:35:31.848Z,19.50
2023-02-24T00:38:25.899Z,19.10
2023-02-24T00:41:23.866Z,20.60
2023-02-24T00:44:18.381Z,22.20
2023-02-24T00:47:14.294Z,20.80
2023-02-24T00:50:09.719Z,20.10
2023-02-24T00:53:05.574Z,20.30
2023-02-24T00:56:07.107Z,21.20
2023-02-24T00:59:03.076Z,19.30
2023-02-24T01:01:57.506Z,22.00
2023-02-24T01:04:52.060Z,21.10
2023-02-24T01:07:46.941Z,22.50
2023-02-24T01:10:41.082Z,22.20
2023-02-24T01:13:35.220Z,20.90
2023-02-24T01:16:29.365Z,23.30
2023-02-24T01:19:31.545Z,20.30
2023-02-24T01:22:27.698Z,22.10
2023-02-24T01:25:22.513Z,24.10
2023-02-24T01:28:17.874Z,21.80
2023-02-24T01:31:12.414Z,20.90
2023-02-24T01:34:07.045Z,22.00
2023-02-24T01:37:01.083Z,21.70
2023-02-24T01:39:55.766Z,22.10
2023-02-24T01:42:49.921Z,22.00
2023-02-24T01:45:44.198Z,25.30
2023-02-24T01:48:38.358Z,20.90
2023-02-24T01:51:36.978Z,22.10
2023-02-24T01:54:34.858Z,20.60
2023-02-24T01:57:34.857Z,20.90
2023-02-24T02:00:37.851Z,20.70
2023-02-24T02:03:36.411Z,20.80
2023-02-24T02:06:31.719Z,19.30
2023-02-24T02:09:25.915Z,19.10
2023-02-24T02:12:20.134Z,19.10
2023-02-24T02:15:20.319Z,18.80
2023-02-24T02:18:30.345Z,20.20
2023-02-24T02:22:31.374Z,19.40
2023-02-24T02:26:03.047Z,18.60
2023-02-24T02:30:01.073Z,19.10
2023-02-24T02:33:50.837Z,18.00
2023-02-24T02:37:07.029Z,17.70
2023-02-24T02:40:17.233Z,15.90
2023-02-24T02:43:27.065Z,16.60
2023-02-24T02:46:35.112Z,18.60
2023-02-24T02:49:38.973Z,17.00
2023-02-24T02:52:40.724Z,16.80
2023-02-24T02:55:44.804Z,16.00
2023-02-24T02:58:46.139Z,16.20
2023-02-24T03:01:46.729Z,16.40
2023-02-24T03:04:43.562Z,17.40
2023-02-24T03:07:42.834Z,16.20
2023-02-24T03:10:37.672Z,16.30
2023-02-24T03:13:36.867Z,15.60
2023-02-24T03:16:31.764Z,15.20
2023-02-24T03:19:39.093Z,14.40
2023-02-24T03:22:41.258Z,13.40
2023-02-24T03:25:46.811Z,14.90
2023-02-24T03:29:06.221Z,13.60
2023-02-24T03:32:33.606Z,14.00
2023-02-24T03:35:34.306Z,14.20
2023-02-24T03:38:30.598Z,14.50
2023-02-24T03:41:24.965Z,13.10
2023-02-24T03:44:19.058Z,13.90
2023-02-24T03:47:14.085Z,14.30
2023-02-24T03:50:14.337Z,12.90
2023-02-24T03:53:32.045Z,12.60
2023-02-24T03:56:40.894Z,14.00
2023-02-24T03:59:52.885Z,12.50
2023-02-24T04:02:52.162Z,13.40
2023-02-24T04:05:54.907Z,12.10
2023-02-24T04:08:55.326Z,11.90
2023-02-24T04:11:58.188Z,12.70
2023-02-24T04:14:59.465Z,12.90
2023-02-24T04:18:05.385Z,11.90
2023-02-24T04:21:08.420Z,11.80
2023-02-24T04:24:15.812Z,15.50
2023-02-24T04:27:16.604Z,11.80
2023-02-24T04:30:14.649Z,11.40
2023-02-24T04:33:10.109Z,11.40
2023-02-24T04:36:06.077Z,14.70
2023-02-24T04:39:00.154Z,12.10
2023-02-24T04:41:54.813Z,12.80
2023-02-24T04:44:50.188Z,16.10
2023-02-24T04:47:46.391Z,14.90
2023-02-24T04:50:43.037Z,14.20
2023-02-24T04:53:39.504Z,16.50
2023-02-24T04:56:34.360Z,14.50
2023-02-24T04:59:29.574Z,14.30
2023-02-24T05:02:23.817Z,15.50
2023-02-24T05:05:25.689Z,15.80
2023-02-24T05:08:21.362Z,14.90
2023-02-24T05:11:04.709Z,13.80
2023-02-24T05:14:01.325Z,16.20
2023-02-24T05:17:00.759Z,11.30
2023-02-24T05:20:03.799Z,13.70
2023-02-24T05:22:59.054Z,11.90
2023-02-24T05:25:55.218Z,12.80
2023-02-24T05:28:52.496Z,12.60
2023-02-24T05:31:47.680Z,13.80
2023-02-24T05:34:42.804Z,20.10
2023-02-24T05:37:43.070Z,12.40
2023-02-24T05:40:46.114Z,15.00
2023-02-24T05:43:41.659Z,13.10
2023-02-24T05:46:38.740Z,13.20
2023-02-24T05:49:35.778Z,11.90
2023-02-24T05:52:30.261Z,12.90
2023-02-24T05:55:24.320Z,11.60
2023-02-24T05:58:18.932Z,13.40
2023-02-24T06:01:19.000Z,12.70
2023-02-24T06:04:21.058Z,14.60
2023-02-24T06:07:19.810Z,14.10
2023-02-24T06:10:16.009Z,12.50
2023-02-24T06:13:13.204Z,13.00
2023-02-24T06:16:12.840Z,12.90
2023-02-24T06:19:08.566Z,16.10
2023-02-24T06:22:12.868Z,11.70
2023-02-24T06:25:08.698Z,12.60
2023-02-24T06:28:02.810Z,12.70
2023-02-24T06:30:57.213Z,12.40
2023-02-24T06:33:53.136Z,12.50
2023-02-24T06:36:49.158Z,13.60
2023-02-24T06:39:44.073Z,13.30
2023-02-24T06:42:39.275Z,12.70
2023-02-24T06:45:33.497Z,13.20
2023-02-24T06:48:28.241Z,12.70
2023-02-24T06:51:24.614Z,10.20
2023-02-24T06:54:19.177Z,11.70
2023-02-24T06:57:17.851Z,11.40
2023-02-24T07:00:18.166Z,14.60
2023-02-24T07:03:18.069Z,12.20
2023-02-24T07:06:20.424Z,12.50
2023-02-24T07:09:17.105Z,12.10
2023-02-24T07:12:12.759Z,12.10
2023-02-24T07:15:08.436Z,12.90
2023-02-24T07:18:03.138Z,12.90
2023-02-24T07:21:05.435Z,15.40
2023-02-24T07:24:00.211Z,9.90
2023-02-24T07:27:04.077Z,11.50
2023-02-24T07:29:59.216Z,11.00
2023-02-24T07:32:55.463Z,12.50
2023-02-24T07:35:54.071Z,14.80
2023-02-24T07:38:48.536Z,12.60
2023-02-24T07:41:46.599Z,13.60
2023-02-24T07:44:40.924Z,11.60
2023-02-24T07:47:36.575Z,11.80
2023-02-24T07:50:32.776Z,13.40
2023-02-24T07:53:27.879Z,10.70
2023-02-24T07:56:27.082Z,14.70
2023-02-24T07:59:22.281Z,12.10
2023-02-24T08:02:18.604Z,13.40
2023-02-24T08:05:14.875Z,12.10
2023-02-24T08:08:09.448Z,13.90
2023-02-24T08:11:04.180Z,16.30
2023-02-24T08:13:59.209Z,12.70
2023-02-24T08:16:59.397Z,12.40
2023-02-24T08:20:15.464Z,14.00
2023-02-24T08:23:10.980Z,11.00
2023-02-24T08:26:12.608Z,18.00
2023-02-24T08:29:07.649Z,11.60
2023-02-24T08:32:24.467Z,15.00
2023-02-24T08:35:23.218Z,9.70
2023-02-24T08:38:20.682Z,16.20
2023-02-24T08:41:21.474Z,16.30
2023-02-24T08:44:20.546Z,13.60
2023-02-24T08:47:22.125Z,14.00
2023-02-24T08:50:16.700Z,12.80
2023-02-24T08:53:10.684Z,16.60
2023-02-24T08:56:09.576Z,13.60
2023-02-24T08:59:06.386Z,19.70
2023-02-24T09:02:18.398Z,15.50
2023-02-24T09:05:14.696Z,13.00
2023-02-24T09:08:08.881Z,12.80
2023-02-24T09:11:07.804Z,16.10
2023-02-24T09:14:01.717Z,13.90
2023-02-24T09:17:06.986Z,16.70
2023-02-24T09:20:18.740Z,13.70
2023-02-24T09:23:20.515Z,14.40
2023-02-24T09:26:14.354Z,15.90
2023-02-24T09:29:28.469Z,12.30
2023-02-24T09:32:22.484Z,14.10
2023-02-24T09:35:26.026Z,16.20
2023-02-24T09:38:42.467Z,15.50
2023-02-24T09:41:56.898Z,15.20
2023-02-24T09:44:57.839Z,15.60
2023-02-24T09:47:57.261Z,14.90
2023-02-24T09:51:05.196Z,14.10
2023-02-24T09:54:01.962Z,13.30
2023-02-24T09:57:09.211Z,14.00
2023-02-24T10:00:25.762Z,12.40
2023-02-24T10:03:42.129Z,13.40
2023-02-24T10:06:44.422Z,11.90
2023-02-24T10:09:43.941Z,14.30
2023-02-24T10:12:40.423Z,13.90
2023-02-24T10:15:59.670Z,12.10
2023-02-24T10:19:15.091Z,13.00
2023-02-24T10:22:30.143Z,14.30
2023-02-24T10:25:53.811Z,14.40
2023-02-24T10:28:57.236Z,14.60
2023-02-24T10:31:58.105Z,14.40
2023-02-24T10:34:52.553Z,14.50
2023-02-24T10:37:46.688Z,13.10
2023-02-24T10:40:56.957Z,13.20
2023-02-24T10:44:00.056Z,13.40
2023-02-24T10:47:17.804Z,12.50
2023-02-24T10:50:29.823Z,13.90
2023-02-24T10:53:34.867Z,15.50
2023-02-24T10:56:26.838Z,14.20
2023-02-24T10:59:41.267Z,13.00
2023-02-24T11:02:56.701Z,14.00
2023-02-24T11:06:08.294Z,13.30
2023-02-24T11:09:32.059Z,16.60
2023-02-24T11:12:45.109Z,16.70
2023-02-24T11:16:14.631Z,15.30
2023-02-24T11:19:12.014Z,15.10
2023-02-24T11:22:08.856Z,15.20
2023-02-24T11:25:08.180Z,17.20
2023-02-24T11:28:03.023Z,14.00
2023-02-24T11:31:06.132Z,17.80
2023-02-24T11:34:08.616Z,15.60
2023-02-24T11:37:16.162Z,17.30
2023-02-24T11:40:18.904Z,13.10
2023-02-24T11:43:20.625Z,16.60
2023-02-24T11:46:22.317Z,15.00
2023-02-24T11:49:31.351Z,17.20
2023-02-24T11:52:32.277Z,15.20
2023-02-24T11:55:50.837Z,14.40
2023-02-24T11:58:51.712Z,13.70
2023-02-24T12:01:53.409Z,19.00
2023-02-24T12:04:59.906Z,13.90
2023-02-24T12:07:58.745Z,13.30
2023-02-24T12:10:59.624Z,14.40
2023-02-24T12:14:06.923Z,14.50
2023-02-24T12:17:14.104Z,14.90
2023-02-24T12:20:20.060Z,14.70
2023-02-24T12:23:23.282Z,14.70
2023-02-24T12:26:24.571Z,19.80
2023-02-24T12:30:06.256Z,14.60
2023-02-24T12:33:18.928Z,15.70
2023-02-24T12:36:31.057Z,13.10
2023-02-24T12:39:50.560Z,19.30
2023-02-24T12:43:11.721Z,12.00
2023-02-24T12:46:18.485Z,13.40
2023-02-24T12:49:33.880Z,13.00
2023-02-24T12:52:57.003Z,12.50
2023-02-24T12:56:03.280Z,13.30
2023-02-24T12:59:02.441Z,17.10
2023-02-24T13:02:06.484Z,12.90
2023-02-24T13:05:10.372Z,14.50
2023-02-24T13:08:22.842Z,12.60
2023-02-24T13:11:27.857Z,12.00
2023-02-24T13:14:31.719Z,13.60
2023-02-24T13:17:27.996Z,13.00
2023-02-24T13:20:35.310Z,13.80
2023-02-24T13:23:29.269Z,14.00
2023-02-24T13:26:29.271Z,14.30
2023-02-24T13:29:23.698Z,13.50
2023-02-24T13:32:37.191Z,14.50
2023-02-24T13:35:39.196Z,12.30
2023-02-24T13:39:21.133Z,13.10
2023-02-24T13:42:28.256Z,12.90
2023-02-24T13:45:24.631Z,13.70
2023-02-24T13:49:06.625Z,13.50
2023-02-24T13:52:09.044Z,13.80
2023-02-24T13:55:24.133Z,12.70
2023-02-24T13:58:38.944Z,12.50
2023-02-24T14:01:49.015Z,13.00
2023-02-24T14:04:52.421Z,14.40
2023-02-24T14:07:51.248Z,12.70
2023-02-24T14:10:53.313Z,19.40
2023-02-24T14:13:51.706Z,16.60
2023-02-24T14:16:49.932Z,14.70
2023-02-24T14:19:43.774Z,16.20
2023-02-24T14:22:44.154Z,14.60
2023-02-24T14:25:42.237Z,14.70
2023-02-24T14:28:39.478Z,13.90
2023-02-24T14:31:33.364Z,14.60
2023-02-24T14:34:29.639Z,14.40
2023-02-24T14:37:26.343Z,13.60
2023-02-24T14:40:22.219Z,14.30
2023-02-24T14:43:18.841Z,15.50
2023-02-24T14:46:12.670Z,13.50
2023-02-24T14:49:06.487Z,13.90
2023-02-24T14:52:05.868Z,12.30
2023-02-24T14:55:03.835Z,15.40
2023-02-24T14:58:23.645Z,14.30
2023-02-24T15:01:30.730Z,13.10
2023-02-24T15:04:36.829Z,13.90
2023-02-24T15:07:53.288Z,13.40
2023-02-24T15:10:49.255Z,14.70
2023-02-24T15:13:48.459Z,13.30
2023-02-24T15:16:47.009Z,13.40
2023-02-24T15:19:46.469Z,13.00
2023-02-24T15:22:53.688Z,13.50
2023-02-24T15:25:49.775Z,13.20
2023-02-24T15:28:43.994Z,13.50
2023-02-24T15:31:37.996Z,15.80
2023-02-24T15:34:36.443Z,11.90
2023-02-24T15:37:51.572Z,14.70
2023-02-24T15:41:06.762Z,13.00
2023-02-24T15:44:00.813Z,13.40
2023-02-24T15:46:54.850Z,14.30
2023-02-24T15:49:48.717Z,15.10
2023-02-24T15:52:43.198Z,13.60
2023-02-24T15:55:37.268Z,15.00
2023-02-24T15:58:33.008Z,15.80
2023-02-24T16:01:28.297Z,15.30
2023-02-24T16:04:23.490Z,14.50
2023-02-24T16:07:26.468Z,13.80
2023-02-24T16:10:25.251Z,12.40
2023-02-24T16:13:23.983Z,13.10
2023-02-24T16:16:19.279Z,16.80
2023-02-24T16:19:16.415Z,16.10
2023-02-24T16:22:12.165Z,13.90
2023-02-24T16:25:07.204Z,15.20
2023-02-24T16:28:02.034Z,15.00
2023-02-24T16:30:56.242Z,12.30
2023-02-24T16:33:54.891Z,16.50
2023-02-24T16:36:49.539Z,12.00
2023-02-24T16:39:43.519Z,13.40
2023-02-24T16:42:37.728Z,13.60
2023-02-24T16:45:32.253Z,13.60
2023-02-24T16:48:29.519Z,12.90
2023-02-24T16:51:24.366Z,12.60
2023-02-24T16:54:21.876Z,12.40
2023-02-24T16:57:16.455Z,12.60
2023-02-24T17:00:15.826Z,12.20
2023-02-24T17:03:18.969Z,14.30
2023-02-24T17:06:12.976Z,14.20
2023-02-24T17:09:15.602Z,13.80
2023-02-24T17:12:12.504Z,13.00
2023-02-24T17:15:09.935Z,18.20
2023-02-24T17:18:04.016Z,14.90
2023-02-24T17:20:58.240Z,13.40
2023-02-24T17:23:52.781Z,14.60
2023-02-24T17:26:47.077Z,32.40
2023-02-24T17:29:40.802Z,35.60
2023-02-24T17:32:34.909Z,30.80
2023-02-24T17:35:31.688Z,27.80
2023-02-24T17:38:26.280Z,22.00
2023-02-24T17:41:26.824Z,22.80
2023-02-24T17:44:20.956Z,22.90
2023-02-24T17:47:14.962Z,20.70
2023-02-24T17:50:12.192Z,19.40
2023-02-24T17:53:06.842Z,28.60
2023-02-24T17:56:08.914Z,26.80
2023-02-24T17:59:02.820Z,65.00
2023-02-24T18:01:56.780Z,37.20
2023-02-24T18:04:55.323Z,37.80
2023-02-24T18:07:49.685Z,32.00
2023-02-24T18:10:43.695Z,32.50
2023-02-24T18:13:37.783Z,31.40
2023-02-24T18:16:32.129Z,29.00
2023-02-24T18:19:26.994Z,26.90
2023-02-24T18:22:21.254Z,26.30
2023-02-24T18:25:15.488Z,29.90
2023-02-24T18:28:09.870Z,26.90
2023-02-24T18:31:10.315Z,28.80
2023-02-24T18:34:04.660Z,27.40
2023-02-24T18:36:58.545Z,30.40
2023-02-24T18:39:53.312Z,27.00
2023-02-24T18:42:49.549Z,29.00
2023-02-24T18:45:43.437Z,24.00
2023-02-24T18:48:38.122Z,24.00
2023-02-24T18:51:32.508Z,25.20
2023-02-24T18:54:26.686Z,28.40
2023-02-24T18:57:21.003Z,27.30
2023-02-24T19:00:17.913Z,24.30
2023-02-24T19:03:12.263Z,26.40
2023-02-24T19:06:06.285Z,25.70
2023-02-24T19:09:06.074Z,24.10
2023-02-24T19:12:01.568Z,31.40
2023-02-24T19:14:56.542Z,26.50
2023-02-24T19:17:50.569Z,24.20
2023-02-24T19:20:47.066Z,29.40
2023-02-24T19:23:41.532Z,28.50
2023-02-24T19:26:35.582Z,29.20
2023-02-24T19:29:29.595Z,25.30
2023-02-24T19:32:23.501Z,35.40
2023-02-24T19:35:17.398Z,25.40
2023-02-24T19:38:13.610Z,25.40
2023-02-24T19:41:07.541Z,25.80
2023-02-24T19:44:01.968Z,27.90
2023-02-24T19:46:55.790Z,25.70
2023-02-24T19:49:49.562Z,21.80
2023-02-24T19:52:44.182Z,23.50
2023-02-24T19:55:38.200Z,24.60
2023-02-24T19:58:32.149Z,24.50
2023-02-24T20:01:28.355Z,23.70
2023-02-24T20:04:23.263Z,25.10
2023-02-24T20:07:17.145Z,22.40
2023-02-24T20:10:13.143Z,22.30
2023-02-24T20:13:07.171Z,22.00
2023-02-24T20:16:11.669Z,23.80
2023-02-24T20:19:06.189Z,22.90
2023-02-24T20:22:00.430Z,23.40
2023-02-24T20:24:54.569Z,24.30
2023-02-24T20:27:48.348Z,21.50
2023-02-24T20:30:42.547Z,23.40
2023-02-24T20:33:36.615Z,23.50
2023-02-24T20:36:31.485Z,22.60
2023-02-24T20:39:25.664Z,23.50
2023-02-24T20:42:19.674Z,21.60
2023-02-24T20:45:14.512Z,22.60
2023-02-24T20:48:08.946Z,25.30
2023-02-24T20:51:08.681Z,26.00
2023-02-24T20:54:02.777Z,22.60
2023-02-24T20:56:56.861Z,24.10
2023-02-24T21:00:02.726Z,24.20
2023-02-24T21:02:59.743Z,21.70
2023-02-24T21:06:01.566Z,25.40
2023-02-24T21:09:02.979Z,24.30
2023-02-24T21:11:57.319Z,25.00
2023-02-24T21:14:51.143Z,25.10
2023-02-24T21:17:45.173Z,25.40
2023-02-24T21:20:38.941Z,24.20
2023-02-24T21:23:33.004Z,25.40
2023-02-24T21:26:29.164Z,22.00
2023-02-24T21:29:23.048Z,24.10
2023-02-24T21:32:17.001Z,25.80
2023-02-24T21:35:11.904Z,25.10
2023-02-24T21:38:05.722Z,27.20
2023-02-24T21:41:02.943Z,25.00
2023-02-24T21:44:01.406Z,23.00
2023-02-24T21:46:56.030Z,28.90
2023-02-24T21:49:51.150Z,24.10
2023-02-24T21:52:46.810Z,27.60
2023-02-24T21:55:40.737Z,25.50
2023-02-24T21:58:35.392Z,24.80
2023-02-24T22:01:32.301Z,26.10
2023-02-24T22:04:28.154Z,25.30
2023-02-24T22:07:22.104Z,26.60
2023-02-24T22:10:18.457Z,27.80
2023-02-24T22:13:12.190Z,29.70
2023-02-24T22:16:10.352Z,27.90
2023-02-24T22:19:04.572Z,25.50
2023-02-24T22:22:01.013Z,31.90
2023-02-24T22:24:54.927Z,29.00
2023-02-24T22:27:48.624Z,28.70
2023-02-24T22:30:42.650Z,29.20
2023-02-24T22:33:40.880Z,31.70
2023-02-24T22:36:37.730Z,31.60
2023-02-24T22:39:31.536Z,27.90
2023-02-24T22:42:26.055Z,25.10
2023-02-24T22:45:19.965Z,26.30
2023-02-24T22:48:14.534Z,24.70
2023-02-24T22:51:11.406Z,27.40
2023-02-24T22:54:05.493Z,26.20
2023-02-24T22:57:00.148Z,27.50
2023-02-24T22:59:53.904Z,28.80
2023-02-24T23:02:47.712Z,26.90
2023-02-24T23:05:41.831Z,28.80
2023-02-24T23:08:39.138Z,29.00
2023-02-24T23:11:35.925Z,28.80
2023-02-24T23:14:30.515Z,28.60
2023-02-24T23:17:24.397Z,29.80
2023-02-24T23:20:18.632Z,25.80
2023-02-24T23:23:13.768Z,27.20
2023-02-24T23:26:08.388Z,27.00
2023-02-24T23:29:03.042Z,27.10
2023-02-24T23:31:57.382Z,27.10
2023-02-24T23:34:54.420Z,26.90
2023-02-24T23:37:48.340Z,26.10
2023-02-24T23:40:50.845Z,27.70
2023-02-24T23:43:33.346Z,26.00
2023-02-24T23:46:27.203Z,28.90
2023-02-24T23:49:20.926Z,35.40
2023-02-24T23:52:14.776Z,29.00
2023-02-24T23:55:11.551Z,26.80
2023-02-24T23:58:05.656Z,27.60
